createdAt,value
2022-11-18T00:03:12.211Z,7.4
2022-11-18T00:08:12.171Z,7.4
2022-11-18T00:13:12.177Z,7.3
2022-11-18T00:18:12.194Z,7.3
2022-11-18T00:23:12.140Z,7.1
2022-11-18T00:28:12.178Z,7.2
2022-11-18T00:33:12.355Z,7.1
2022-11-18T00:38:12.266Z,7.1
2022-11-18T00:43:12.287Z,7.1
2022-11-18T00:48:12.189Z,7.1
2022-11-18T00:53:12.278Z,7.1
2022-11-18T00:58:12.181Z,7.1
2022-11-18T01:03:12.203Z,7.1
2022-11-18T01:08:12.282Z,7
2022-11-18T01:13:12.206Z,6.8
2022-11-18T01:18:13.140Z,6.7
2022-11-18T01:23:12.372Z,6.5
2022-11-18T01:28:12.215Z,6.3
2022-11-18T01:33:12.241Z,6.1
2022-11-18T01:38:12.403Z,6.3
2022-11-18T01:43:12.491Z,6.3
2022-11-18T01:48:12.297Z,6.3
2022-11-18T01:53:12.284Z,6.2
2022-11-18T01:58:12.337Z,6.1
2022-11-18T02:03:12.219Z,6.2
2022-11-18T02:08:12.253Z,6.3
2022-11-18T02:13:12.494Z,6.2
2022-11-18T02:18:12.362Z,6.1
2022-11-18T02:23:12.356Z,6.1
2022-11-18T02:28:12.348Z,6
2022-11-18T02:33:12.417Z,6.1
2022-11-18T02:38:12.540Z,6.1
2022-11-18T02:43:12.217Z,6.2
2022-11-18T02:48:12.749Z,6.3
2022-11-18T02:53:12.393Z,6.4
2022-11-18T02:58:12.311Z,6.4
2022-11-18T03:03:12.223Z,6.3
2022-11-18T03:08:12.262Z,6.2
2022-11-18T03:13:12.228Z,6.3
2022-11-18T03:18:12.241Z,6.3
2022-11-18T03:23:12.241Z,6.4
2022-11-18T03:28:12.239Z,6.3
2022-11-18T03:33:12.189Z,6.3
2022-11-18T03:38:12.391Z,6.3
2022-11-18T03:43:12.213Z,6.4
2022-11-18T03:48:12.267Z,6.4
2022-11-18T03:58:12.388Z,6.5
2022-11-18T04:03:12.254Z,6.5
2022-11-18T04:08:12.255Z,6.6
2022-11-18T04:13:12.362Z,6.6
2022-11-18T04:18:12.276Z,6.6
2022-11-18T04:23:12.303Z,6.6
2022-11-18T04:28:12.279Z,6.6
2022-11-18T04:33:12.185Z,6.6
2022-11-18T04:38:12.217Z,6.6
2022-11-18T04:43:12.284Z,6.6
2022-11-18T04:48:12.192Z,6.6
2022-11-18T04:53:12.268Z,6.6
2022-11-18T04:58:12.272Z,6.6
2022-11-18T05:03:12.301Z,6.5
2022-11-18T05:08:12.246Z,6.6
2022-11-18T05:13:12.261Z,6.6
2022-11-18T05:18:12.218Z,6.6
2022-11-18T05:23:12.217Z,6.6
2022-11-18T05:28:12.293Z,6.6
2022-11-18T05:33:12.276Z,6.6
2022-11-18T05:38:12.262Z,6.6
2022-11-18T05:43:12.278Z,6.6
2022-11-18T05:48:12.363Z,6.6
2022-11-18T05:53:13.976Z,6.6
2022-11-18T05:58:13.388Z,6.6
2022-11-18T06:23:13.615Z,6.6
2022-11-18T06:28:13.270Z,6.6
2022-11-18T06:33:13.263Z,6.6
2022-11-18T06:38:13.270Z,6.5
2022-11-18T06:43:13.230Z,6.5
2022-11-18T06:48:13.351Z,6.5
2022-11-18T06:53:13.271Z,6.5
2022-11-18T06:58:13.310Z,6.6
2022-11-18T07:03:13.350Z,6.6
2022-11-18T07:08:13.267Z,6.6
2022-11-18T07:13:13.263Z,6.6
2022-11-18T07:18:13.216Z,6.7
2022-11-18T07:23:13.299Z,6.7
2022-11-18T07:28:13.232Z,6.8
2022-11-18T07:33:13.234Z,6.8
2022-11-18T07:38:13.268Z,6.8
2022-11-18T07:43:13.253Z,6.9
2022-11-18T07:48:13.300Z,6.9
2022-11-18T07:53:13.480Z,6.8
2022-11-18T07:58:13.250Z,6.8
2022-11-18T08:03:14.467Z,6.9
2022-11-18T08:08:13.374Z,6.9
2022-11-18T08:13:13.287Z,6.9
2022-11-18T08:18:13.938Z,6.9
2022-11-18T08:23:13.299Z,6.8
2022-11-18T08:28:13.314Z,6.9
2022-11-18T08:33:13.221Z,6.9
2022-11-18T08:38:13.240Z,6.9
2022-11-18T08:43:13.259Z,6.9
2022-11-18T08:48:13.278Z,6.9
2022-11-18T08:53:13.308Z,6.9
2022-11-18T08:58:13.282Z,6.9
2022-11-18T09:03:13.302Z,7
2022-11-18T09:08:13.299Z,6.9
2022-11-18T09:13:40.269Z,6.9
2022-11-18T09:18:13.517Z,6.9
2022-11-18T09:23:13.377Z,6.8
2022-11-18T09:28:13.251Z,6.9
2022-11-18T09:33:16.594Z,6.8
2022-11-18T09:38:13.391Z,6.8
2022-11-18T09:43:13.354Z,6.9
2022-11-18T09:48:13.299Z,6.8
2022-11-18T09:53:13.253Z,6.9
2022-11-18T09:58:13.202Z,6.9
2022-11-18T10:03:13.293Z,6.9
2022-11-18T10:08:13.263Z,6.8
2022-11-18T10:13:13.266Z,6.9
2022-11-18T10:18:18.765Z,6.9
2022-11-18T10:23:13.336Z,6.9
2022-11-18T10:28:13.273Z,6.8
2022-11-18T10:33:13.262Z,6.8
2022-11-18T10:38:13.293Z,6.9
2022-11-18T10:43:13.272Z,6.9
2022-11-18T10:48:13.324Z,7.1
2022-11-18T10:53:13.288Z,7.1
2022-11-18T10:58:13.291Z,7
2022-11-18T11:03:13.257Z,7
2022-11-18T11:08:34.956Z,7.1
2022-11-18T11:13:13.286Z,7.1
2022-11-18T11:18:13.369Z,7.2
2022-11-18T11:23:15.652Z,7.1
2022-11-18T11:33:13.416Z,7.1
2022-11-18T11:38:13.462Z,7.1
2022-11-18T11:43:13.448Z,7.1
2022-11-18T11:48:13.428Z,7.1
2022-11-18T11:53:13.258Z,7.1
2022-11-18T11:58:13.305Z,7.1
2022-11-18T12:03:13.404Z,7.1
2022-11-18T12:08:13.305Z,7
2022-11-18T12:13:13.290Z,7
2022-11-18T12:18:13.286Z,7.1
2022-11-18T12:23:13.387Z,7
2022-11-18T12:28:13.287Z,7.3
2022-11-18T12:33:13.344Z,7.1
2022-11-18T12:38:13.290Z,7.2
2022-11-18T12:43:13.389Z,7.3
2022-11-18T12:48:13.341Z,7.3
2022-11-18T12:53:13.339Z,7.2
2022-11-18T12:58:13.336Z,7.2
2022-11-18T13:03:13.319Z,7.1
2022-11-18T13:08:13.424Z,7.3
2022-11-18T13:13:13.271Z,7.3
2022-11-18T13:18:13.308Z,7.3
2022-11-18T13:23:13.575Z,7.3
2022-11-18T13:28:13.337Z,7.3
2022-11-18T13:33:13.256Z,7.3
2022-11-18T13:38:13.302Z,7.3
2022-11-18T13:43:13.322Z,7.3
2022-11-18T13:48:13.328Z,7.3
2022-11-18T13:53:13.371Z,7.3
2022-11-18T13:58:13.362Z,7.3
2022-11-18T14:03:13.358Z,7.2
2022-11-18T14:08:13.327Z,7.2
2022-11-18T14:13:13.279Z,7.3
2022-11-18T14:18:13.313Z,7.2
2022-11-18T14:23:13.348Z,7.1
2022-11-18T14:28:13.320Z,7.1
2022-11-18T14:33:13.266Z,7.1
2022-11-18T14:38:35.766Z,7.2
2022-11-18T14:43:13.319Z,7.2
2022-11-18T14:48:13.308Z,7.2
2022-11-18T14:53:13.260Z,7.2
2022-11-18T14:58:13.314Z,7.1
2022-11-18T15:03:13.326Z,7.2
2022-11-18T15:08:13.311Z,7.2
2022-11-18T15:13:13.455Z,7.1
2022-11-18T15:18:13.375Z,7.1
2022-11-18T15:23:13.385Z,7.1
2022-11-18T15:28:13.345Z,7.1
2022-11-18T15:33:13.437Z,7.1
2022-11-18T15:38:13.307Z,7.1
2022-11-18T15:43:13.356Z,7.1
2022-11-18T15:48:13.282Z,7.1
2022-11-18T15:53:13.325Z,7.1
2022-11-18T15:58:13.355Z,7
2022-11-18T16:03:13.389Z,7
2022-11-18T16:08:13.363Z,7
2022-11-18T16:13:13.320Z,7
2022-11-18T16:18:13.308Z,7
2022-11-18T16:23:13.445Z,6.9
2022-11-18T16:28:13.309Z,7
2022-11-18T16:33:13.311Z,7
2022-11-18T16:38:13.360Z,7
2022-11-18T16:43:13.340Z,7
2022-11-18T16:48:13.340Z,7
2022-11-18T16:53:13.372Z,7.1
2022-11-18T16:58:13.366Z,7
2022-11-18T17:03:13.418Z,7.1
2022-11-18T17:08:13.333Z,7.1
2022-11-18T17:13:13.364Z,7.1
2022-11-18T17:18:13.277Z,7.2
2022-11-18T17:23:13.363Z,7.1
2022-11-18T17:28:13.479Z,7.1
2022-11-18T17:33:13.315Z,7.1
2022-11-18T17:38:13.560Z,7.1
2022-11-18T17:43:13.390Z,7.1
2022-11-18T17:48:13.363Z,7.1
2022-11-18T17:53:13.367Z,7.1
2022-11-18T17:58:13.292Z,7
2022-11-18T18:03:13.323Z,7.1
2022-11-18T18:08:13.344Z,7
2022-11-18T18:13:13.327Z,7.1
2022-11-18T18:18:13.342Z,7
2022-11-18T18:23:13.411Z,6.9
2022-11-18T18:28:13.383Z,7
2022-11-18T18:33:13.322Z,7
2022-11-18T18:38:13.345Z,6.9
2022-11-18T18:43:13.351Z,6.9
2022-11-18T18:48:13.328Z,6.9
2022-11-18T18:53:13.394Z,6.9
2022-11-18T18:58:13.327Z,6.8
2022-11-18T19:03:13.374Z,6.8
2022-11-18T19:08:13.572Z,6.8
2022-11-18T19:13:13.323Z,6.8
2022-11-18T19:18:13.371Z,6.8
2022-11-18T19:23:13.559Z,6.8
2022-11-18T19:28:13.334Z,6.8
2022-11-18T19:33:13.366Z,6.6
2022-11-18T19:38:13.360Z,6.6
2022-11-18T19:43:13.422Z,6.6
2022-11-18T19:48:13.349Z,6.5
2022-11-18T19:53:13.340Z,6.5
2022-11-18T19:58:13.266Z,6.4
2022-11-18T20:03:13.347Z,6.4
2022-11-18T20:08:13.403Z,6.4
2022-11-18T20:13:13.374Z,6.4
2022-11-18T20:18:13.370Z,6.4
2022-11-18T20:23:13.448Z,6.3
2022-11-18T20:28:13.498Z,6.3
2022-11-18T20:33:13.344Z,6.2
2022-11-18T20:38:13.265Z,6.2
2022-11-18T20:43:13.391Z,6.1
2022-11-18T20:48:13.341Z,6
2022-11-18T20:53:13.378Z,5.9
2022-11-18T20:58:13.370Z,5.9
2022-11-18T21:03:13.485Z,6
2022-11-18T21:08:13.311Z,6.1
2022-11-18T21:13:13.382Z,6.1
2022-11-18T21:18:13.310Z,6.1
2022-11-18T21:23:13.411Z,6
2022-11-18T21:28:13.345Z,6
2022-11-18T21:33:13.392Z,6
2022-11-18T21:38:13.380Z,6
2022-11-18T21:43:13.379Z,6.1
2022-11-18T21:48:13.358Z,6
2022-11-18T21:53:13.372Z,6.1
2022-11-18T21:58:13.423Z,6
2022-11-18T22:03:13.368Z,5.9
2022-11-18T22:08:13.348Z,5.8
2022-11-18T22:13:13.348Z,5.5
2022-11-18T22:28:13.678Z,5
2022-11-18T22:33:13.414Z,5
2022-11-18T22:38:13.354Z,4.8
2022-11-18T22:43:13.369Z,4.8
2022-11-18T22:48:13.341Z,4.7
2022-11-18T22:53:13.332Z,4.7
2022-11-18T22:58:13.403Z,4.8
2022-11-18T23:03:13.384Z,4.4
2022-11-18T23:08:13.330Z,4.2
2022-11-18T23:13:13.335Z,4.2
2022-11-18T23:18:13.601Z,4.1
2022-11-18T23:23:15.637Z,3.9
2022-11-18T23:28:13.440Z,3.9
2022-11-18T23:33:13.405Z,3.9
2022-11-18T23:38:13.360Z,4
2022-11-18T23:43:13.384Z,4
2022-11-18T23:48:13.346Z,4.1
2022-11-18T23:53:13.365Z,3.8
2022-11-18T23:58:13.601Z,3.8
